createdAt,value
2023-05-13T00:01:40.543Z,15.49
2023-05-13T00:04:25.366Z,15.74
2023-05-13T00:07:10.073Z,15.62
2023-05-13T00:09:54.403Z,15.54
2023-05-13T00:12:38.700Z,15.54
2023-05-13T00:15:23.169Z,15.45
2023-05-13T00:18:07.619Z,15.47
2023-05-13T00:20:52.681Z,15.43
2023-05-13T00:23:38.167Z,15.53
2023-05-13T00:26:22.321Z,15.29
2023-05-13T00:29:08.425Z,15.49
2023-05-13T00:31:53.089Z,15.57
2023-05-13T00:34:37.119Z,15.46
2023-05-13T00:37:21.434Z,15.51
2023-05-13T00:40:06.253Z,15.56
2023-05-13T00:42:51.590Z,15.80
2023-05-13T00:45:40.375Z,15.70
2023-05-13T00:48:25.221Z,15.51
2023-05-13T00:51:09.229Z,15.60
2023-05-13T00:53:55.539Z,15.46
2023-05-13T00:56:40.793Z,15.48
2023-05-13T00:59:29.354Z,15.17
2023-05-13T01:02:35.360Z,15.20
2023-05-13T01:05:59.615Z,15.39
2023-05-13T01:09:16.436Z,15.35
2023-05-13T01:12:11.548Z,15.12
2023-05-13T01:15:07.769Z,15.12
2023-05-13T01:18:10.897Z,15.32
2023-05-13T01:20:56.450Z,15.14
2023-05-13T01:23:40.610Z,15.05
2023-05-13T01:26:26.966Z,15.08
2023-05-13T01:29:11.494Z,15.28
2023-05-13T01:31:58.687Z,15.14
2023-05-13T01:34:45.134Z,15.02
2023-05-13T01:37:31.452Z,15.09
2023-05-13T01:40:31.070Z,14.91
2023-05-13T01:43:18.670Z,15.06
2023-05-13T01:46:04.474Z,14.86
2023-05-13T01:48:48.690Z,14.82
2023-05-13T01:51:32.779Z,14.97
2023-05-13T01:54:16.600Z,15.05
2023-05-13T01:57:05.645Z,14.82
2023-05-13T01:59:49.663Z,15.08
2023-05-13T02:02:33.497Z,15.19
2023-05-13T02:05:17.781Z,15.06
2023-05-13T02:08:01.784Z,15.09
2023-05-13T02:10:45.964Z,14.99
2023-05-13T02:13:30.532Z,14.94
2023-05-13T02:16:21.124Z,14.80
2023-05-13T02:19:05.232Z,14.94
2023-05-13T02:21:48.975Z,14.80
2023-05-13T02:24:32.673Z,14.73
2023-05-13T02:27:17.134Z,14.60
2023-05-13T02:30:01.758Z,14.56
2023-05-13T02:32:46.693Z,14.59
2023-05-13T02:35:31.417Z,14.62
2023-05-13T02:38:17.523Z,14.59
2023-05-13T02:41:02.066Z,14.62
2023-05-13T02:43:46.188Z,14.60
2023-05-13T02:46:32.412Z,14.34
2023-05-13T02:49:16.962Z,14.56
2023-05-13T02:52:00.597Z,14.37
2023-05-13T02:54:50.061Z,14.30
2023-05-13T02:57:33.694Z,14.46
2023-05-13T03:00:17.647Z,14.25
2023-05-13T03:03:01.420Z,14.13
2023-05-13T03:05:45.015Z,14.22
2023-05-13T03:08:28.597Z,14.14
2023-05-13T03:11:12.148Z,13.91
2023-05-13T03:13:58.476Z,14.09
2023-05-13T03:16:45.180Z,13.99
2023-05-13T03:19:30.536Z,13.91
2023-05-13T03:22:14.694Z,13.89
2023-05-13T03:24:58.693Z,14.05
2023-05-13T03:27:48.706Z,13.87
2023-05-13T03:30:34.728Z,13.94
2023-05-13T03:33:30.114Z,13.95
2023-05-13T03:36:14.656Z,13.76
2023-05-13T03:38:58.366Z,14.12
2023-05-13T03:41:42.172Z,13.92
2023-05-13T03:44:25.779Z,14.03
2023-05-13T03:47:09.355Z,14.09
2023-05-13T03:49:52.919Z,14.20
2023-05-13T03:52:36.471Z,14.24
2023-05-13T03:55:20.268Z,14.12
2023-05-13T03:58:14.374Z,13.91
2023-05-13T04:00:58.203Z,13.82
2023-05-13T04:03:44.398Z,13.81
2023-05-13T04:06:27.959Z,13.90
2023-05-13T04:09:11.684Z,13.74
2023-05-13T04:11:55.230Z,13.78
2023-05-13T04:14:40.190Z,13.87
2023-05-13T04:17:23.774Z,13.83
2023-05-13T04:20:08.885Z,13.85
2023-05-13T04:22:52.759Z,13.83
2023-05-13T04:25:37.664Z,13.67
2023-05-13T04:28:21.350Z,13.78
2023-05-13T04:31:06.669Z,13.92
2023-05-13T04:33:52.577Z,13.95
2023-05-13T04:36:36.218Z,13.70
2023-05-13T04:39:20.523Z,13.84
2023-05-13T04:42:04.178Z,13.99
2023-05-13T04:44:48.906Z,13.98
2023-05-13T04:47:35.424Z,13.95
2023-05-13T04:50:19.140Z,14.07
2023-05-13T04:53:03.091Z,13.88
2023-05-13T04:55:49.443Z,14.14
2023-05-13T04:58:33.153Z,14.12
2023-05-13T05:01:16.828Z,14.18
2023-05-13T05:04:00.498Z,14.39
2023-05-13T05:06:44.219Z,14.44
2023-05-13T05:09:30.366Z,14.31
2023-05-13T05:12:14.819Z,14.40
2023-05-13T05:14:58.772Z,14.33
2023-05-13T05:17:44.952Z,14.64
2023-05-13T05:20:28.644Z,14.22
2023-05-13T05:23:14.913Z,14.41
2023-05-13T05:26:08.407Z,14.62
2023-05-13T05:28:55.844Z,14.72
2023-05-13T05:31:39.867Z,14.84
2023-05-13T05:34:23.560Z,15.02
2023-05-13T05:37:07.332Z,15.00
2023-05-13T05:39:53.728Z,14.76
2023-05-13T05:42:38.152Z,15.22
2023-05-13T05:45:21.941Z,15.07
2023-05-13T05:48:06.609Z,15.10
2023-05-13T05:50:50.537Z,15.42
2023-05-13T05:53:42.414Z,15.52
2023-05-13T05:56:28.350Z,15.43
2023-05-13T05:59:11.897Z,15.52
2023-05-13T06:01:55.876Z,15.70
2023-05-13T06:04:42.068Z,15.54
2023-05-13T06:07:25.915Z,15.68
2023-05-13T06:10:12.006Z,15.79
2023-05-13T06:12:55.669Z,15.86
2023-05-13T06:15:39.440Z,16.03
2023-05-13T06:18:23.250Z,15.96
2023-05-13T06:21:06.839Z,16.07
2023-05-13T06:23:50.526Z,15.98
2023-05-13T06:26:34.063Z,16.16
2023-05-13T06:29:17.908Z,16.15
2023-05-13T06:32:01.651Z,16.05
2023-05-13T06:34:46.033Z,16.35
2023-05-13T06:37:29.957Z,16.39
2023-05-13T06:40:13.853Z,16.58
2023-05-13T06:42:59.839Z,16.98
2023-05-13T06:45:48.971Z,16.97
2023-05-13T06:48:33.643Z,16.81
2023-05-13T06:51:17.418Z,16.85
2023-05-13T06:54:01.225Z,17.07
2023-05-13T06:56:44.800Z,17.27
2023-05-13T06:59:28.384Z,17.29
2023-05-13T07:02:12.101Z,17.25
2023-05-13T07:04:55.789Z,17.47
2023-05-13T07:07:39.437Z,17.54
2023-05-13T07:10:25.845Z,17.53
2023-05-13T07:13:09.561Z,17.84
2023-05-13T07:15:53.284Z,17.90
2023-05-13T07:18:37.009Z,17.59
2023-05-13T07:21:21.959Z,17.82
2023-05-13T07:24:05.719Z,18.25
2023-05-13T07:26:51.772Z,18.33
2023-05-13T07:29:35.543Z,18.43
2023-05-13T07:32:19.195Z,18.49
2023-05-13T07:35:04.440Z,18.56
2023-05-13T07:37:48.165Z,18.48
2023-05-13T07:40:31.759Z,18.75
2023-05-13T07:43:18.065Z,19.19
2023-05-13T07:46:03.526Z,19.28
2023-05-13T07:48:47.159Z,19.35
2023-05-13T07:51:31.293Z,19.44
2023-05-13T07:54:14.996Z,19.86
2023-05-13T07:56:58.686Z,19.89
2023-05-13T07:59:44.524Z,20.27
2023-05-13T08:02:28.468Z,20.42
2023-05-13T08:05:12.518Z,20.59
2023-05-13T08:07:59.528Z,20.95
2023-05-13T08:10:43.101Z,20.89
2023-05-13T08:13:26.755Z,21.04
2023-05-13T08:16:10.381Z,21.42
2023-05-13T08:18:54.281Z,21.44
2023-05-13T08:21:37.879Z,21.84
2023-05-13T08:24:21.595Z,21.65
2023-05-13T08:27:05.850Z,21.92
2023-05-13T08:29:49.510Z,22.26
2023-05-13T08:32:33.612Z,22.32
2023-05-13T08:35:17.290Z,22.21
2023-05-13T08:38:01.012Z,22.65
2023-05-13T08:40:46.722Z,22.61
2023-05-13T08:43:34.542Z,22.76
2023-05-13T08:46:19.558Z,22.70
2023-05-13T08:49:04.997Z,23.12
2023-05-13T08:51:48.633Z,23.11
2023-05-13T08:54:33.121Z,23.22
2023-05-13T08:57:16.888Z,22.82
2023-05-13T09:00:00.282Z,23.57
2023-05-13T09:02:44.474Z,23.54
2023-05-13T09:05:28.387Z,23.68
2023-05-13T09:08:12.520Z,23.81
2023-05-13T09:10:56.011Z,23.82
2023-05-13T09:13:39.398Z,24.47
2023-05-13T09:16:26.072Z,24.71
2023-05-13T09:19:11.497Z,24.49
2023-05-13T09:21:55.946Z,24.64
2023-05-13T09:24:40.079Z,24.62
2023-05-13T09:27:38.494Z,24.87
2023-05-13T09:30:22.195Z,24.90
2023-05-13T09:33:20.273Z,24.53
2023-05-13T09:36:06.035Z,24.84
2023-05-13T09:38:55.244Z,25.21
2023-05-13T09:41:39.521Z,25.03
2023-05-13T09:44:23.307Z,25.25
2023-05-13T09:47:07.059Z,25.41
2023-05-13T09:49:57.727Z,25.81
2023-05-13T09:52:41.433Z,25.91
2023-05-13T09:55:25.140Z,26.11
2023-05-13T09:58:12.996Z,25.99
2023-05-13T10:00:58.338Z,26.28
2023-05-13T10:03:42.546Z,26.38
2023-05-13T10:06:29.932Z,26.18
2023-05-13T10:09:17.533Z,26.46
2023-05-13T10:12:06.920Z,25.88
2023-05-13T10:14:54.166Z,25.89
2023-05-13T10:17:42.430Z,26.34
2023-05-13T10:20:26.938Z,26.43
2023-05-13T10:23:11.452Z,26.70
2023-05-13T10:25:56.100Z,26.65
2023-05-13T10:28:41.092Z,27.00
2023-05-13T10:31:26.565Z,26.99
2023-05-13T10:34:11.404Z,26.86
2023-05-13T10:37:33.557Z,27.36
2023-05-13T10:40:44.796Z,27.27
2023-05-13T10:43:31.066Z,27.44
2023-05-13T10:46:14.945Z,27.17
2023-05-13T10:49:00.154Z,27.06
2023-05-13T10:51:49.395Z,27.39
2023-05-13T10:54:42.344Z,27.76
2023-05-13T10:57:38.592Z,27.05
2023-05-13T11:00:32.430Z,27.74
2023-05-13T11:03:30.119Z,27.81
2023-05-13T11:06:13.716Z,28.07
2023-05-13T11:08:57.406Z,28.13
2023-05-13T11:11:41.810Z,28.21
2023-05-13T11:14:30.249Z,27.72
2023-05-13T11:17:18.971Z,27.38
2023-05-13T11:20:06.190Z,27.62
2023-05-13T11:22:51.821Z,27.91
2023-05-13T11:25:35.927Z,27.63
2023-05-13T11:29:08.379Z,28.38
2023-05-13T11:31:57.821Z,27.44
2023-05-13T11:34:51.761Z,27.42
2023-05-13T11:37:43.962Z,28.09
2023-05-13T11:40:34.100Z,27.34
2023-05-13T11:43:24.673Z,27.47
2023-05-13T11:46:09.556Z,26.89
2023-05-13T11:48:53.150Z,26.42
2023-05-13T11:51:36.957Z,27.50
2023-05-13T11:54:20.574Z,27.76
2023-05-13T11:57:04.341Z,27.77
2023-05-13T11:59:58.625Z,27.96
2023-05-13T12:02:44.235Z,28.27
2023-05-13T12:05:28.287Z,28.15
2023-05-13T12:08:12.063Z,27.72
2023-05-13T12:10:56.100Z,28.05
2023-05-13T12:13:42.965Z,28.39
2023-05-13T12:16:27.342Z,28.19
2023-05-13T12:19:11.504Z,28.07
2023-05-13T12:21:55.100Z,27.84
2023-05-13T12:24:38.688Z,28.25
2023-05-13T12:27:22.913Z,28.55
2023-05-13T12:30:15.462Z,27.61
2023-05-13T12:32:59.362Z,27.67
2023-05-13T12:35:45.180Z,26.39
2023-05-13T12:38:28.859Z,26.17
2023-05-13T12:41:13.485Z,26.46
2023-05-13T12:44:11.266Z,27.18
2023-05-13T12:47:02.007Z,27.15
2023-05-13T12:49:54.040Z,26.20
2023-05-13T12:52:37.590Z,26.94
2023-05-13T12:55:21.601Z,27.52
2023-05-13T12:58:11.377Z,27.06
2023-05-13T13:00:55.103Z,26.35
2023-05-13T13:03:39.098Z,26.68
2023-05-13T13:06:22.728Z,27.09
2023-05-13T13:09:06.368Z,27.37
2023-05-13T13:11:49.942Z,27.94
2023-05-13T13:14:33.689Z,28.16
2023-05-13T13:17:17.433Z,28.17
2023-05-13T13:20:01.461Z,28.52
2023-05-13T13:22:46.382Z,28.49
2023-05-13T13:25:30.046Z,27.41
2023-05-13T13:28:13.658Z,27.79
2023-05-13T13:30:57.372Z,27.05
2023-05-13T13:33:41.018Z,26.64
2023-05-13T13:36:24.606Z,27.04
2023-05-13T13:39:08.141Z,27.30
2023-05-13T13:41:51.655Z,27.79
2023-05-13T13:44:37.480Z,28.01
2023-05-13T13:47:21.182Z,28.34
2023-05-13T13:50:06.331Z,28.07
2023-05-13T13:52:52.482Z,27.04
2023-05-13T13:55:36.095Z,27.10
2023-05-13T13:58:19.710Z,26.87
2023-05-13T14:01:03.239Z,26.88
2023-05-13T14:03:50.872Z,26.57
2023-05-13T14:06:34.777Z,26.48
2023-05-13T14:09:18.789Z,25.42
2023-05-13T14:12:02.460Z,26.50
2023-05-13T14:14:46.125Z,27.51
2023-05-13T14:17:33.712Z,27.53
2023-05-13T14:20:17.698Z,25.86
2023-05-13T14:23:04.530Z,27.72
2023-05-13T14:25:48.859Z,27.77
2023-05-13T14:28:32.561Z,27.58
2023-05-13T14:31:16.438Z,27.64
2023-05-13T14:34:00.176Z,27.07
2023-05-13T14:36:43.729Z,27.75
2023-05-13T14:39:27.255Z,27.42
2023-05-13T14:42:11.869Z,27.87
2023-05-13T14:44:55.609Z,28.19
2023-05-13T14:47:39.272Z,28.06
2023-05-13T14:50:23.323Z,27.67
2023-05-13T14:53:07.059Z,27.35
2023-05-13T14:55:51.571Z,27.48
2023-05-13T14:58:35.440Z,27.58
2023-05-13T15:01:19.367Z,27.27
2023-05-13T15:04:03.169Z,26.78
2023-05-13T15:06:46.960Z,27.50
2023-05-13T15:09:30.659Z,26.85
2023-05-13T15:12:14.246Z,26.96
2023-05-13T15:14:59.015Z,26.70
2023-05-13T15:17:42.883Z,26.81
2023-05-13T15:20:28.428Z,27.38
2023-05-13T15:23:12.075Z,27.11
2023-05-13T15:25:55.815Z,26.70
2023-05-13T15:28:39.534Z,27.08
2023-05-13T15:31:23.157Z,26.69
2023-05-13T15:34:07.169Z,26.42
2023-05-13T15:36:50.868Z,26.27
2023-05-13T15:39:34.498Z,26.08
2023-05-13T15:42:18.048Z,25.12
2023-05-13T15:45:01.592Z,24.51
2023-05-13T15:47:45.789Z,24.17
2023-05-13T15:50:29.335Z,23.42
2023-05-13T15:53:15.871Z,23.57
2023-05-13T15:55:59.383Z,23.50
2023-05-13T15:58:43.087Z,23.51
2023-05-13T16:01:27.306Z,23.04
2023-05-13T16:04:10.970Z,22.71
2023-05-13T16:06:54.602Z,22.59
2023-05-13T16:09:39.475Z,22.29
2023-05-13T16:12:23.068Z,22.61
2023-05-13T16:15:07.430Z,22.79
2023-05-13T16:17:51.009Z,22.64
2023-05-13T16:20:34.652Z,22.76
2023-05-13T16:23:18.158Z,22.79
2023-05-13T16:26:01.806Z,22.31
2023-05-13T16:28:45.511Z,22.38
2023-05-13T16:31:29.289Z,22.79
2023-05-13T16:34:13.049Z,22.50
2023-05-13T16:36:58.946Z,22.50
2023-05-13T16:39:46.043Z,22.63
2023-05-13T16:42:29.588Z,22.66
2023-05-13T16:45:13.201Z,22.87
2023-05-13T16:47:57.202Z,22.77
2023-05-13T16:50:40.999Z,22.54
2023-05-13T16:53:26.945Z,22.47
2023-05-13T16:56:13.276Z,22.10
2023-05-13T16:58:56.940Z,22.48
2023-05-13T17:01:40.684Z,22.92
2023-05-13T17:04:24.618Z,23.17
2023-05-13T17:07:10.422Z,21.88
2023-05-13T17:09:53.928Z,21.80
2023-05-13T17:12:37.851Z,21.83
2023-05-13T17:15:21.674Z,21.84
2023-05-13T17:18:07.744Z,21.61
2023-05-13T17:20:51.551Z,21.98
2023-05-13T17:23:35.746Z,21.48
2023-05-13T17:26:22.190Z,22.00
2023-05-13T17:29:11.554Z,21.58
2023-05-13T17:31:58.129Z,21.39
2023-05-13T17:34:41.652Z,21.23
2023-05-13T17:37:25.195Z,21.23
2023-05-13T17:40:09.654Z,21.41
2023-05-13T17:42:53.238Z,21.12
2023-05-13T17:45:39.189Z,21.13
2023-05-13T17:48:22.959Z,21.13
2023-05-13T17:51:06.564Z,20.81
2023-05-13T17:53:52.342Z,20.90
2023-05-13T17:56:38.335Z,20.71
2023-05-13T17:59:21.904Z,20.90
2023-05-13T18:02:08.228Z,20.77
2023-05-13T18:04:52.720Z,20.60
2023-05-13T18:07:36.408Z,20.75
2023-05-13T18:10:20.153Z,20.48
2023-05-13T18:13:03.753Z,20.61
2023-05-13T18:15:47.493Z,20.39
2023-05-13T18:18:31.537Z,20.08
2023-05-13T18:21:15.237Z,20.82
2023-05-13T18:23:58.916Z,20.47
2023-05-13T18:26:42.482Z,20.17
2023-05-13T18:29:25.977Z,20.77
2023-05-13T18:32:09.672Z,20.63
2023-05-13T18:34:55.837Z,20.60
2023-05-13T18:37:39.516Z,20.71
2023-05-13T18:40:25.700Z,20.73
2023-05-13T18:43:09.280Z,20.83
2023-05-13T18:45:53.541Z,20.75
2023-05-13T18:48:40.710Z,20.65
2023-05-13T18:51:27.502Z,20.39
2023-05-13T18:54:11.420Z,20.02
2023-05-13T18:56:56.257Z,19.81
2023-05-13T18:59:39.907Z,19.79
2023-05-13T19:02:23.572Z,19.70
2023-05-13T19:05:08.284Z,19.64
2023-05-13T19:07:51.869Z,19.46
2023-05-13T19:10:40.040Z,19.35
2023-05-13T19:13:33.104Z,19.32
2023-05-13T19:16:23.215Z,18.92
2023-05-13T19:19:06.835Z,18.87
2023-05-13T19:21:50.419Z,18.70
2023-05-13T19:24:33.954Z,18.48
2023-05-13T19:27:18.021Z,18.38
2023-05-13T19:30:01.613Z,18.43
2023-05-13T19:32:45.792Z,18.45
2023-05-13T19:35:29.824Z,18.22
2023-05-13T19:38:13.501Z,18.18
2023-05-13T19:40:57.159Z,18.05
2023-05-13T19:43:40.890Z,17.92
2023-05-13T19:46:24.540Z,18.01
2023-05-13T19:49:11.097Z,18.19
2023-05-13T19:51:54.706Z,17.95
2023-05-13T19:54:38.218Z,17.81
2023-05-13T19:57:21.954Z,17.73
2023-05-13T20:00:07.695Z,17.77
2023-05-13T20:02:52.141Z,17.51
2023-05-13T20:05:35.777Z,17.41
2023-05-13T20:08:20.651Z,17.55
2023-05-13T20:11:04.236Z,17.67
2023-05-13T20:13:47.836Z,17.59
2023-05-13T20:16:31.458Z,17.36
2023-05-13T20:19:15.134Z,17.20
2023-05-13T20:21:58.686Z,17.17
2023-05-13T20:24:43.349Z,17.14
2023-05-13T20:27:29.697Z,16.92
2023-05-13T20:30:14.007Z,16.99
2023-05-13T20:32:57.566Z,16.85
2023-05-13T20:35:41.170Z,16.72
2023-05-13T20:38:25.403Z,16.75
2023-05-13T20:41:09.417Z,16.64
2023-05-13T20:43:52.945Z,16.64
2023-05-13T20:46:36.515Z,16.76
2023-05-13T20:49:20.064Z,16.56
2023-05-13T20:52:05.776Z,16.33
2023-05-13T20:54:50.782Z,16.40
2023-05-13T20:57:34.317Z,16.58
2023-05-13T21:00:18.399Z,16.58
2023-05-13T21:03:02.024Z,16.51
2023-05-13T21:05:45.639Z,16.45
2023-05-13T21:08:29.247Z,16.32
2023-05-13T21:11:20.363Z,16.34
2023-05-13T21:14:04.000Z,16.31
2023-05-13T21:16:47.759Z,16.25
2023-05-13T21:19:31.342Z,16.26
2023-05-13T21:22:16.574Z,16.38
2023-05-13T21:25:00.151Z,16.44
2023-05-13T21:27:43.759Z,16.43
2023-05-13T21:30:27.281Z,16.28
2023-05-13T21:33:12.674Z,16.47
2023-05-13T21:35:56.823Z,16.47
2023-05-13T21:38:40.416Z,16.39
2023-05-13T21:41:24.110Z,16.43
2023-05-13T21:44:08.029Z,16.44
2023-05-13T21:46:51.723Z,16.36
2023-05-13T21:49:35.369Z,16.28
2023-05-13T21:52:18.920Z,16.20
2023-05-13T21:55:02.604Z,16.21
2023-05-13T21:57:48.960Z,16.27
2023-05-13T22:00:32.518Z,16.40
2023-05-13T22:03:16.135Z,16.41
2023-05-13T22:05:59.761Z,16.32
2023-05-13T22:08:43.303Z,16.39
2023-05-13T22:11:27.031Z,16.22
2023-05-13T22:14:10.748Z,16.10
2023-05-13T22:17:07.547Z,16.35
2023-05-13T22:19:53.050Z,15.97
2023-05-13T22:22:36.654Z,15.89
2023-05-13T22:25:20.257Z,15.95
2023-05-13T22:28:03.890Z,15.91
2023-05-13T22:30:47.511Z,15.85
2023-05-13T22:33:31.208Z,15.75
2023-05-13T22:36:14.796Z,15.79
2023-05-13T22:38:58.356Z,15.68
2023-05-13T22:41:41.918Z,15.57
2023-05-13T22:44:25.496Z,15.70
2023-05-13T22:47:09.151Z,15.72
2023-05-13T22:49:52.747Z,15.73
2023-05-13T22:52:36.335Z,15.65
2023-05-13T22:55:21.191Z,15.53
2023-05-13T22:58:04.961Z,15.46
2023-05-13T23:00:49.724Z,15.37
2023-05-13T23:03:33.270Z,15.42
2023-05-13T23:06:16.778Z,15.46
2023-05-13T23:09:00.996Z,15.37
2023-05-13T23:11:44.564Z,15.17
2023-05-13T23:14:30.174Z,14.91
2023-05-13T23:17:13.729Z,15.09
2023-05-13T23:19:57.361Z,15.12
2023-05-13T23:22:41.070Z,15.10
2023-05-13T23:25:24.727Z,15.03
2023-05-13T23:28:08.319Z,14.98
2023-05-13T23:30:55.136Z,15.03
2023-05-13T23:33:38.725Z,14.69
2023-05-13T23:36:22.291Z,14.80
2023-05-13T23:39:06.196Z,14.80
2023-05-13T23:41:49.739Z,14.74
2023-05-13T23:44:33.362Z,14.78
2023-05-13T23:47:16.970Z,14.66
2023-05-13T23:50:00.650Z,14.64
2023-05-13T23:52:44.236Z,14.48
2023-05-13T23:55:27.853Z,14.60
2023-05-13T23:58:11.391Z,14.57
